createdAt,value
2022-08-25T00:01:32.310Z,100972.81
2022-08-25T00:03:59.765Z,100975.53
2022-08-25T00:06:26.554Z,100962.19
2022-08-25T00:08:53.291Z,100948.16
2022-08-25T00:11:23.913Z,100988.59
2022-08-25T00:13:54.180Z,100986.25
2022-08-25T00:16:22.558Z,100958.38
2022-08-25T00:18:53.304Z,100951.75
2022-08-25T00:21:20.175Z,100960.09
2022-08-25T00:23:46.800Z,100983.06
2022-08-25T00:26:14.990Z,100963.72
2022-08-25T00:28:43.189Z,100998.91
2022-08-25T00:31:15.881Z,100994.22
2022-08-25T00:33:46.780Z,100998.38
2022-08-25T00:36:14.369Z,101006.81
2022-08-25T00:38:41.879Z,101002.78
2022-08-25T00:41:11.350Z,100972.75
2022-08-25T00:43:41.574Z,100998.00
2022-08-25T00:46:09.539Z,101011.44
2022-08-25T00:48:37.313Z,100999.13
2022-08-25T00:51:05.265Z,100983.84
2022-08-25T00:53:32.319Z,101002.22
2022-08-25T00:55:59.188Z,101009.75
2022-08-25T00:58:27.941Z,101011.00
2022-08-25T01:00:56.122Z,101002.72
2022-08-25T01:03:33.051Z,101006.03
2022-08-25T01:06:02.083Z,100943.06
2022-08-25T01:08:29.985Z,100985.66
2022-08-25T01:11:02.942Z,100992.25
2022-08-25T01:13:33.964Z,100964.13
2022-08-25T01:16:00.999Z,101006.53
2022-08-25T01:18:28.358Z,101001.53
2022-08-25T01:20:57.433Z,101005.38
2022-08-25T01:23:24.822Z,101001.19
2022-08-25T01:26:16.988Z,100997.75
2022-08-25T01:29:04.694Z,101003.75
2022-08-25T01:31:32.189Z,101002.25
2022-08-25T01:33:59.527Z,101002.31
2022-08-25T01:36:27.889Z,100964.44
2022-08-25T01:38:54.879Z,100992.69
2022-08-25T01:41:27.714Z,101003.38
2022-08-25T01:43:54.262Z,101006.47
2022-08-25T01:46:21.250Z,100982.88
2022-08-25T01:48:48.039Z,100979.56
2022-08-25T01:51:15.791Z,101010.88
2022-08-25T01:53:44.217Z,101006.25
2022-08-25T01:56:13.855Z,101008.81
2022-08-25T01:58:46.766Z,101002.53
2022-08-25T02:01:17.629Z,101008.88
2022-08-25T02:03:46.358Z,100997.56
2022-08-25T02:06:17.665Z,100995.03
2022-08-25T02:08:44.707Z,100996.69
2022-08-25T02:11:13.482Z,100991.69
2022-08-25T02:13:41.638Z,100993.38
2022-08-25T02:16:10.223Z,100987.50
2022-08-25T02:18:36.847Z,100966.63
2022-08-25T02:21:03.642Z,100959.53
2022-08-25T02:23:30.146Z,100991.69
2022-08-25T02:25:57.301Z,100994.63
2022-08-25T02:28:24.908Z,100994.41
2022-08-25T02:30:53.011Z,100966.22
2022-08-25T02:33:25.739Z,100987.72
2022-08-25T02:35:52.334Z,100976.00
2022-08-25T02:38:19.145Z,100979.19
2022-08-25T02:40:45.876Z,100960.34
2022-08-25T02:43:12.566Z,100982.53
2022-08-25T02:45:39.096Z,100984.81
2022-08-25T02:48:05.805Z,100950.34
2022-08-25T02:50:33.283Z,100984.22
2022-08-25T02:52:59.838Z,100975.00
2022-08-25T02:55:26.726Z,100946.38
2022-08-25T02:57:53.254Z,100996.94
2022-08-25T03:00:20.002Z,100996.31
2022-08-25T03:02:47.262Z,101000.06
2022-08-25T03:05:14.892Z,100995.88
2022-08-25T03:07:41.908Z,100973.94
2022-08-25T03:10:14.548Z,100987.31
2022-08-25T03:12:41.676Z,100992.13
2022-08-25T03:15:12.912Z,100980.44
2022-08-25T03:17:40.102Z,100966.84
2022-08-25T03:20:08.136Z,100982.72
2022-08-25T03:22:34.941Z,100991.88
2022-08-25T03:25:24.073Z,100988.56
2022-08-25T03:27:51.894Z,100991.72
2022-08-25T03:30:19.259Z,100979.59
2022-08-25T03:32:46.221Z,100980.84
2022-08-25T03:35:12.878Z,100985.44
2022-08-25T03:37:39.803Z,100973.31
2022-08-25T03:40:09.380Z,100947.84
2022-08-25T03:42:46.088Z,100959.75
2022-08-25T03:45:14.060Z,100958.25
2022-08-25T03:47:41.229Z,100925.38
2022-08-25T03:50:10.181Z,100957.78
2022-08-25T03:52:42.271Z,100923.94
2022-08-25T03:55:12.336Z,100957.53
2022-08-25T03:57:39.370Z,100964.47
2022-08-25T04:00:09.486Z,100949.59
2022-08-25T04:02:36.084Z,100967.13
2022-08-25T04:05:03.339Z,100947.97
2022-08-25T04:07:30.482Z,100974.41
2022-08-25T04:09:57.047Z,100969.38
2022-08-25T04:12:24.285Z,100959.59
2022-08-25T04:14:51.011Z,100963.69
2022-08-25T04:17:18.238Z,100958.94
2022-08-25T04:19:44.798Z,100965.53
2022-08-25T04:22:11.546Z,100918.81
2022-08-25T04:24:40.205Z,100952.50
2022-08-25T04:27:06.867Z,100946.81
2022-08-25T04:29:33.890Z,100966.75
2022-08-25T04:32:00.513Z,100959.59
2022-08-25T04:34:29.761Z,100960.22
2022-08-25T04:37:01.753Z,100935.97
2022-08-25T04:39:28.841Z,100955.41
2022-08-25T04:41:55.493Z,100946.03
2022-08-25T04:44:22.285Z,100946.72
2022-08-25T04:46:49.688Z,100947.84
2022-08-25T04:49:16.252Z,100940.19
2022-08-25T04:51:43.034Z,100947.00
2022-08-25T04:54:12.681Z,100951.00
2022-08-25T04:56:41.307Z,100940.56
2022-08-25T04:59:12.173Z,100938.75
2022-08-25T05:01:39.779Z,100940.84
2022-08-25T05:04:08.298Z,100938.53
2022-08-25T05:06:41.899Z,100913.44
2022-08-25T05:09:09.236Z,100906.06
2022-08-25T05:11:37.419Z,100940.03
2022-08-25T05:14:04.532Z,100950.72
2022-08-25T05:16:31.715Z,100923.72
2022-08-25T05:18:58.819Z,100909.16
2022-08-25T05:21:27.258Z,100943.06
2022-08-25T05:23:57.806Z,100958.75
2022-08-25T05:26:25.944Z,100954.75
2022-08-25T05:28:54.275Z,100947.28
2022-08-25T05:31:22.464Z,100953.72
2022-08-25T05:33:49.124Z,100959.09
2022-08-25T05:36:17.199Z,100958.16
2022-08-25T05:38:44.153Z,100954.56
2022-08-25T05:41:13.239Z,100954.56
2022-08-25T05:43:41.273Z,100949.63
2022-08-25T05:46:08.274Z,100943.44
2022-08-25T05:48:35.531Z,100948.25
2022-08-25T05:51:04.502Z,100939.97
2022-08-25T05:53:33.694Z,100935.88
2022-08-25T05:56:01.737Z,100934.97
2022-08-25T05:58:29.688Z,100928.66
2022-08-25T06:00:57.985Z,100945.94
2022-08-25T06:03:24.672Z,100940.84
2022-08-25T06:05:51.300Z,100909.59
2022-08-25T06:08:17.821Z,100938.84
2022-08-25T06:10:44.338Z,100932.78
2022-08-25T06:13:10.969Z,100930.81
2022-08-25T06:15:38.581Z,100924.91
2022-08-25T06:18:05.189Z,100921.72
2022-08-25T06:20:32.267Z,100903.25
2022-08-25T06:22:59.383Z,100925.66
2022-08-25T06:25:27.067Z,100933.69
2022-08-25T06:27:54.886Z,100913.19
2022-08-25T06:30:24.619Z,100927.59
2022-08-25T06:32:55.908Z,100906.09
2022-08-25T06:35:22.786Z,100922.22
2022-08-25T06:37:49.409Z,100930.53
2022-08-25T06:40:16.922Z,100923.59
2022-08-25T06:42:48.383Z,100924.38
2022-08-25T06:45:14.990Z,100925.41
2022-08-25T06:47:41.645Z,100886.34
2022-08-25T06:50:08.655Z,100926.69
2022-08-25T06:52:35.690Z,100931.97
2022-08-25T06:55:03.371Z,100935.06
2022-08-25T06:57:31.693Z,100939.41
2022-08-25T06:59:59.731Z,100937.06
2022-08-25T07:02:26.369Z,100912.81
2022-08-25T07:04:53.626Z,100933.88
2022-08-25T07:07:20.204Z,100937.13
2022-08-25T07:09:46.958Z,100938.50
2022-08-25T07:12:13.756Z,100882.50
2022-08-25T07:14:40.312Z,100934.91
2022-08-25T07:17:23.573Z,100936.53
2022-08-25T07:19:51.568Z,100931.75
2022-08-25T07:22:24.290Z,100936.94
2022-08-25T07:24:50.807Z,100938.53
2022-08-25T07:27:17.315Z,100944.66
2022-08-25T07:29:44.070Z,100940.25
2022-08-25T07:32:10.898Z,100904.56
2022-08-25T07:34:56.267Z,100935.28
2022-08-25T07:37:47.512Z,100931.66
2022-08-25T07:40:15.571Z,100951.16
2022-08-25T07:42:42.360Z,100945.28
2022-08-25T07:45:10.830Z,100950.88
2022-08-25T07:47:38.961Z,100942.34
2022-08-25T07:50:07.916Z,100938.41
2022-08-25T07:52:34.630Z,100933.56
2022-08-25T07:55:01.884Z,100925.28
2022-08-25T07:57:29.613Z,100920.94
2022-08-25T07:59:56.647Z,100936.09
2022-08-25T08:02:24.738Z,100913.59
2022-08-25T08:04:53.110Z,100932.47
2022-08-25T08:07:25.791Z,100933.28
2022-08-25T08:12:57.215Z,100920.41
2022-08-25T08:15:23.853Z,100915.91
2022-08-25T08:17:50.496Z,100916.69
2022-08-25T08:20:17.793Z,100896.88
2022-08-25T08:22:49.974Z,100909.47
2022-08-25T08:25:21.334Z,100910.00
2022-08-25T08:27:55.111Z,100913.31
2022-08-25T08:30:23.822Z,100874.91
2022-08-25T08:33:09.176Z,100913.84
2022-08-25T08:35:36.493Z,100890.97
2022-08-25T08:38:03.843Z,100914.38
2022-08-25T08:40:31.336Z,100912.41
2022-08-25T08:43:17.997Z,100905.91
2022-08-25T08:45:53.104Z,100905.97
2022-08-25T08:48:44.149Z,100898.03
2022-08-25T08:51:23.193Z,100890.38
2022-08-25T08:53:57.477Z,100891.50
2022-08-25T08:56:31.592Z,100885.28
2022-08-25T08:59:19.129Z,100865.38
2022-08-25T09:01:52.463Z,100877.47
2022-08-25T09:04:26.415Z,100882.97
2022-08-25T09:06:55.264Z,100865.81
2022-08-25T09:09:36.065Z,100853.13
2022-08-25T09:12:25.908Z,100870.22
2022-08-25T09:15:15.285Z,100866.38
2022-08-25T09:18:04.635Z,100865.59
2022-08-25T09:20:53.050Z,100866.72
2022-08-25T09:23:34.909Z,100860.97
2022-08-25T09:26:29.923Z,100849.13
2022-08-25T09:29:16.655Z,100855.59
2022-08-25T09:31:43.711Z,100845.84
2022-08-25T09:34:31.942Z,100851.38
2022-08-25T09:36:59.313Z,100838.63
2022-08-25T09:39:27.510Z,100812.72
2022-08-25T09:41:56.907Z,100802.03
2022-08-25T09:44:26.874Z,100814.28
2022-08-25T09:47:01.805Z,100810.34
2022-08-25T09:49:44.356Z,100814.88
2022-08-25T09:52:31.784Z,100801.13
2022-08-25T09:55:24.687Z,100798.03
2022-08-25T09:57:56.836Z,100795.75
2022-08-25T10:00:34.785Z,100770.50
2022-08-25T10:03:09.209Z,100777.28
2022-08-25T10:05:48.571Z,100771.31
2022-08-25T10:08:45.998Z,100778.78
2022-08-25T10:11:15.541Z,100751.81
2022-08-25T10:13:43.470Z,100764.59
2022-08-25T10:16:17.708Z,100747.41
2022-08-25T10:19:07.247Z,100759.75
2022-08-25T10:21:36.412Z,100746.97
2022-08-25T10:24:05.844Z,100739.63
2022-08-25T10:27:03.342Z,100733.31
2022-08-25T10:29:45.153Z,100742.59
2022-08-25T10:32:46.947Z,100715.50
2022-08-25T10:35:41.437Z,100713.16
2022-08-25T10:38:35.256Z,100708.94
2022-08-25T10:41:41.694Z,100714.63
2022-08-25T10:44:54.167Z,100713.47
2022-08-25T10:47:40.922Z,100715.13
2022-08-25T10:51:07.107Z,100700.16
2022-08-25T10:53:54.549Z,100689.50
2022-08-25T10:56:31.817Z,100677.91
2022-08-25T10:59:07.689Z,100676.47
2022-08-25T11:02:03.384Z,100681.47
2022-08-25T11:04:39.155Z,100674.47
2022-08-25T11:07:16.662Z,100664.25
2022-08-25T11:09:48.059Z,100669.13
2022-08-25T11:12:20.088Z,100661.84
2022-08-25T11:14:50.056Z,100652.44
2022-08-25T11:17:25.854Z,100651.34
2022-08-25T11:19:55.810Z,100644.63
2022-08-25T11:22:37.843Z,100654.97
2022-08-25T11:25:21.699Z,100655.03
2022-08-25T11:28:08.214Z,100665.41
2022-08-25T11:30:35.068Z,100658.38
2022-08-25T11:33:01.780Z,100656.66
2022-08-25T11:35:35.893Z,100636.44
2022-08-25T11:38:18.266Z,100654.38
2022-08-25T11:41:11.240Z,100653.16
2022-08-25T11:44:15.720Z,100663.06
2022-08-25T11:47:00.323Z,100653.56
2022-08-25T11:49:58.366Z,100645.13
2022-08-25T11:52:34.578Z,100646.06
2022-08-25T11:55:16.775Z,100637.34
2022-08-25T11:57:47.909Z,100635.84
2022-08-25T12:00:29.144Z,100634.59
2022-08-25T12:03:00.854Z,100626.28
2022-08-25T12:05:28.098Z,100617.91
2022-08-25T12:08:14.944Z,100628.38
2022-08-25T12:10:59.487Z,100628.44
2022-08-25T12:13:47.563Z,100626.47
2022-08-25T12:16:36.179Z,100619.06
2022-08-25T12:19:28.737Z,100619.06
2022-08-25T12:22:03.557Z,100614.22
2022-08-25T12:24:47.574Z,100627.09
2022-08-25T12:27:27.073Z,100632.31
2022-08-25T12:30:24.382Z,100638.03
2022-08-25T12:33:15.270Z,100625.00
2022-08-25T12:36:02.421Z,100623.44
2022-08-25T12:38:50.902Z,100620.53
2022-08-25T12:41:22.529Z,100625.13
2022-08-25T12:43:53.746Z,100617.72
2022-08-25T12:46:23.209Z,100630.81
2022-08-25T12:49:00.493Z,100621.47
2022-08-25T12:51:41.103Z,100618.47
2022-08-25T12:54:36.514Z,100621.75
2022-08-25T12:57:25.113Z,100612.06
2022-08-25T12:59:58.642Z,100610.97
2022-08-25T13:03:04.011Z,100616.34
2022-08-25T13:05:45.238Z,100615.66
2022-08-25T13:08:15.490Z,100614.22
2022-08-25T13:11:14.210Z,100604.63
2022-08-25T13:13:52.765Z,100592.03
2022-08-25T13:16:26.966Z,100565.13
2022-08-25T13:18:59.072Z,100589.59
2022-08-25T13:21:39.193Z,100592.63
2022-08-25T13:24:09.541Z,100590.63
2022-08-25T13:26:48.393Z,100577.31
2022-08-25T13:29:27.844Z,100588.06
2022-08-25T13:31:57.459Z,100582.88
2022-08-25T13:34:34.856Z,100573.16
2022-08-25T13:37:25.085Z,100565.03
2022-08-25T13:40:11.637Z,100564.78
2022-08-25T13:42:45.130Z,100561.34
2022-08-25T13:45:30.099Z,100564.84
2022-08-25T13:47:59.055Z,100551.03
2022-08-25T13:50:26.368Z,100561.59
2022-08-25T13:52:56.085Z,100556.13
2022-08-25T13:55:27.689Z,100549.16
2022-08-25T13:57:57.842Z,100547.50
2022-08-25T14:00:31.699Z,100547.97
2022-08-25T14:02:59.737Z,100535.72
2022-08-25T14:05:41.985Z,100526.31
2022-08-25T14:08:38.719Z,100530.97
2022-08-25T14:11:15.581Z,100538.69
2022-08-25T14:13:45.553Z,100536.38
2022-08-25T14:16:14.261Z,100526.16
2022-08-25T14:18:58.784Z,100534.31
2022-08-25T14:21:28.709Z,100533.00
2022-08-25T14:23:55.961Z,100519.31
2022-08-25T14:26:23.521Z,100521.78
2022-08-25T14:28:53.297Z,100519.34
2022-08-25T14:31:46.367Z,100526.25
2022-08-25T14:34:16.865Z,100524.56
2022-08-25T14:36:43.834Z,100522.72
2022-08-25T14:39:11.637Z,100496.66
2022-08-25T14:41:41.022Z,100511.13
2022-08-25T14:44:09.914Z,100517.59
2022-08-25T14:46:39.249Z,100516.16
2022-08-25T14:49:12.887Z,100527.28
2022-08-25T14:51:41.426Z,100518.81
2022-08-25T14:54:14.879Z,100507.97
2022-08-25T14:56:42.995Z,100506.94
2022-08-25T14:59:09.978Z,100499.03
2022-08-25T15:01:36.717Z,100501.91
2022-08-25T15:04:08.415Z,100494.25
2022-08-25T15:06:36.343Z,100472.78
2022-08-25T15:09:11.663Z,100500.09
2022-08-25T15:11:41.957Z,100485.78
2022-08-25T15:14:10.785Z,100496.50
2022-08-25T15:16:43.461Z,100501.69
2022-08-25T15:19:14.402Z,100493.44
2022-08-25T15:21:43.245Z,100492.22
2022-08-25T15:24:12.375Z,100479.16
2022-08-25T15:29:20.785Z,100485.69
2022-08-25T15:31:47.850Z,100481.75
2022-08-25T15:34:15.312Z,100485.06
2022-08-25T15:36:42.229Z,100478.50
2022-08-25T15:39:10.140Z,100471.13
2022-08-25T15:41:37.962Z,100474.91
2022-08-25T15:44:06.617Z,100463.66
2022-08-25T15:46:36.260Z,100475.97
2022-08-25T15:49:02.923Z,100470.59
2022-08-25T15:51:29.814Z,100458.00
2022-08-25T15:53:57.261Z,100470.88
2022-08-25T15:56:26.735Z,100472.34
2022-08-25T15:58:54.276Z,100459.13
2022-08-25T16:01:26.644Z,100458.19
2022-08-25T16:03:53.986Z,100458.25
2022-08-25T16:06:20.620Z,100446.78
2022-08-25T16:08:48.218Z,100461.00
2022-08-25T16:11:29.587Z,100456.06
2022-08-25T16:13:57.503Z,100444.81
2022-08-25T16:16:26.337Z,100458.09
2022-08-25T16:18:53.584Z,100467.34
2022-08-25T16:21:25.631Z,100454.16
2022-08-25T16:23:58.263Z,100465.19
2022-08-25T16:26:26.519Z,100457.47
2022-08-25T16:28:53.138Z,100473.41
2022-08-25T16:31:20.658Z,100466.88
2022-08-25T16:33:47.306Z,100423.47
2022-08-25T16:36:25.405Z,100452.47
2022-08-25T16:38:55.154Z,100461.44
2022-08-25T16:41:27.192Z,100455.06
2022-08-25T16:43:54.153Z,100456.00
2022-08-25T16:46:23.802Z,100454.56
2022-08-25T16:48:50.774Z,100450.34
2022-08-25T16:51:22.745Z,100397.34
2022-08-25T16:54:15.164Z,100457.63
2022-08-25T16:56:48.817Z,100464.66
2022-08-25T16:59:22.060Z,100456.56
2022-08-25T17:01:51.123Z,100450.31
2022-08-25T17:04:17.847Z,100459.94
2022-08-25T17:06:51.771Z,100455.81
2022-08-25T17:09:23.939Z,100457.19
2022-08-25T17:11:54.170Z,100452.78
2022-08-25T17:14:21.230Z,100455.84
2022-08-25T17:16:48.572Z,100450.03
2022-08-25T17:19:17.382Z,100455.00
2022-08-25T17:21:48.332Z,100451.66
2022-08-25T17:24:17.064Z,100429.66
2022-08-25T17:26:46.092Z,100453.91
2022-08-25T17:29:13.021Z,100444.00
2022-08-25T17:31:40.193Z,100460.50
2022-08-25T17:34:10.405Z,100450.81
2022-08-25T17:36:37.843Z,100456.59
2022-08-25T17:39:08.649Z,100454.97
2022-08-25T17:41:37.581Z,100437.06
2022-08-25T17:44:05.455Z,100464.56
2022-08-25T17:46:32.481Z,100459.94
2022-08-25T17:48:59.207Z,100442.91
2022-08-25T17:51:25.834Z,100466.00
2022-08-25T17:53:52.819Z,100466.53
2022-08-25T17:56:21.915Z,100467.31
2022-08-25T17:58:49.837Z,100471.47
2022-08-25T18:01:23.070Z,100467.31
2022-08-25T18:03:49.944Z,100475.91
2022-08-25T18:06:17.211Z,100476.19
2022-08-25T18:08:45.002Z,100480.81
2022-08-25T18:11:19.728Z,100469.75
2022-08-25T18:13:46.990Z,100474.13
2022-08-25T18:16:13.646Z,100494.97
2022-08-25T18:18:41.233Z,100488.41
2022-08-25T18:21:12.847Z,100487.56
2022-08-25T18:23:39.488Z,100487.41
2022-08-25T18:26:06.832Z,100491.84
2022-08-25T18:28:33.397Z,100465.97
2022-08-25T18:31:01.869Z,100489.50
2022-08-25T18:33:29.907Z,100482.91
2022-08-25T18:35:57.634Z,100463.63
2022-08-25T18:38:43.165Z,100490.66
2022-08-25T18:41:10.952Z,100498.56
2022-08-25T18:43:39.025Z,100498.84
2022-08-25T18:46:06.957Z,100504.44
2022-08-25T18:48:34.895Z,100490.19
2022-08-25T18:51:02.099Z,100498.53
2022-08-25T18:53:30.621Z,100487.22
2022-08-25T18:56:05.636Z,100489.31
2022-08-25T18:58:32.451Z,100493.78
2022-08-25T19:01:00.813Z,100497.28
2022-08-25T19:03:28.203Z,100502.00
2022-08-25T19:05:57.259Z,100501.44
2022-08-25T19:08:24.118Z,100498.63
2022-08-25T19:10:52.791Z,100496.91
2022-08-25T19:13:22.408Z,100505.94
2022-08-25T19:15:50.929Z,100506.41
2022-08-25T19:18:18.840Z,100501.25
2022-08-25T19:20:52.573Z,100511.50
2022-08-25T19:23:19.566Z,100508.00
2022-08-25T19:25:46.757Z,100515.09
2022-08-25T19:28:13.422Z,100509.84
2022-08-25T19:30:50.527Z,100513.34
2022-08-25T19:33:42.731Z,100518.41
2022-08-25T19:36:06.328Z,100519.03
2022-08-25T19:38:37.156Z,100520.91
2022-08-25T19:41:13.946Z,100513.88
2022-08-25T19:43:55.591Z,100516.03
2022-08-25T19:46:32.780Z,100514.41
2022-08-25T19:49:22.416Z,100504.41
2022-08-25T19:51:51.404Z,100518.31
2022-08-25T19:54:22.047Z,100510.72
2022-08-25T19:56:54.772Z,100513.56
2022-08-25T19:59:25.367Z,100519.88
2022-08-25T20:01:53.220Z,100509.94
2022-08-25T20:04:20.143Z,100530.00
2022-08-25T20:06:48.275Z,100516.75
2022-08-25T20:09:35.497Z,100518.03
2022-08-25T20:12:03.637Z,100529.22
2022-08-25T20:14:33.931Z,100526.72
2022-08-25T20:17:01.712Z,100526.59
2022-08-25T20:19:30.474Z,100495.88
2022-08-25T20:21:57.246Z,100491.50
2022-08-25T20:24:43.630Z,100533.34
2022-08-25T20:27:10.694Z,100529.66
2022-08-25T20:29:37.440Z,100534.00
2022-08-25T20:32:05.136Z,100525.91
2022-08-25T20:34:32.575Z,100533.75
2022-08-25T20:37:00.869Z,100532.63
2022-08-25T20:39:27.476Z,100531.84
2022-08-25T20:41:54.155Z,100542.22
2022-08-25T20:44:23.192Z,100539.88
2022-08-25T20:46:51.509Z,100525.06
2022-08-25T20:49:20.146Z,100532.09
2022-08-25T20:51:46.758Z,100540.41
2022-08-25T20:54:17.164Z,100535.53
2022-08-25T20:56:44.014Z,100539.34
2022-08-25T20:59:11.649Z,100528.22
2022-08-25T21:01:39.834Z,100522.34
2022-08-25T21:04:08.690Z,100541.53
2022-08-25T21:06:36.005Z,100536.66
2022-08-25T21:09:05.794Z,100530.38
2022-08-25T21:11:39.893Z,100491.91
2022-08-25T21:14:07.010Z,100532.09
2022-08-25T21:16:36.661Z,100527.97
2022-08-25T21:19:04.620Z,100528.69
2022-08-25T21:21:38.011Z,100532.44
2022-08-25T21:24:07.362Z,100492.78
2022-08-25T21:26:37.293Z,100509.41
2022-08-25T21:29:15.318Z,100498.75
2022-08-25T21:31:42.534Z,100500.56
2022-08-25T21:34:10.967Z,100525.69
2022-08-25T21:36:39.065Z,100516.91
2022-08-25T21:39:05.879Z,100521.78
2022-08-25T21:41:33.679Z,100520.41
2022-08-25T21:44:01.402Z,100521.81
2022-08-25T21:46:30.721Z,100515.53
2022-08-25T21:48:58.913Z,100532.13
2022-08-25T21:51:33.353Z,100479.59
2022-08-25T21:54:11.700Z,100524.41
2022-08-25T21:56:44.391Z,100518.84
2022-08-25T21:59:13.654Z,100511.22
2022-08-25T22:01:41.055Z,100526.56
2022-08-25T22:04:09.070Z,100527.44
2022-08-25T22:06:36.156Z,100511.41
2022-08-25T22:09:04.976Z,100531.25
2022-08-25T22:11:33.937Z,100502.50
2022-08-25T22:14:03.545Z,100519.72
2022-08-25T22:16:33.031Z,100520.00
2022-08-25T22:18:59.868Z,100520.50
2022-08-25T22:21:31.900Z,100518.59
2022-08-25T22:23:59.393Z,100522.59
2022-08-25T22:26:29.094Z,100530.22
2022-08-25T22:28:57.129Z,100529.69
2022-08-25T22:31:23.980Z,100517.97
2022-08-25T22:33:51.640Z,100533.63
2022-08-25T22:36:20.625Z,100534.22
2022-08-25T22:38:47.819Z,100538.50
2022-08-25T22:41:19.032Z,100533.53
2022-08-25T22:43:49.157Z,100525.41
2022-08-25T22:46:17.144Z,100541.28
2022-08-25T22:48:44.514Z,100545.06
2022-08-25T22:51:15.345Z,100544.47
2022-08-25T22:53:43.198Z,100539.59
2022-08-25T22:56:10.835Z,100520.50
2022-08-25T22:58:39.156Z,100539.34
2022-08-25T23:01:13.079Z,100538.41
2022-08-25T23:03:44.200Z,100492.44
2022-08-25T23:06:24.816Z,100548.03
2022-08-25T23:08:53.586Z,100534.88
2022-08-25T23:11:21.466Z,100538.41
2022-08-25T23:13:48.974Z,100536.75
2022-08-25T23:16:17.123Z,100529.72
2022-08-25T23:18:45.002Z,100530.34
2022-08-25T23:21:38.048Z,100536.72
2022-08-25T23:24:10.953Z,100502.28
2022-08-25T23:26:42.511Z,100523.56
2022-08-25T23:29:18.648Z,100532.47
2022-08-25T23:31:48.799Z,100538.88
2022-08-25T23:34:16.693Z,100532.09
2022-08-25T23:36:44.567Z,100538.44
2022-08-25T23:39:11.296Z,100531.31
2022-08-25T23:41:38.474Z,100528.47
2022-08-25T23:44:06.207Z,100525.72
2022-08-25T23:46:35.241Z,100498.97
2022-08-25T23:49:03.996Z,100530.19
2022-08-25T23:51:33.745Z,100532.19
2022-08-25T23:54:05.781Z,100526.19
2022-08-25T23:56:34.318Z,100516.88
2022-08-25T23:59:03.252Z,100505.00
